Time,TemperatureF,DewpointF,PressureIn,WindDirection,WindDirectionDegrees,WindSpeedMPH,WindSpeedGustMPH,Humidity,HourlyPrecipIn,Conditions,Clouds,dailyrainin,SolarRadiationWatts/m^2,SoftwareType,DateUTC
2015-08-01 00:22:00,72.3,63.0,29.93,West,278,0.0,3.0,73,0.00,,,0.00,0,weatherlink.com 1.10,2015-08-01 04:22:00,
2015-08-01 00:52:00,70.4,63.0,29.93,West,276,0.0,3.0,78,0.00,,,0.00,0,weatherlink.com 1.10,2015-08-01 04:52:00,
2015-08-01 01:07:00,69.6,63.0,29.93,West,276,0.0,3.0,80,0.00,,,0.00,0,weatherlink.com 1.10,2015-08-01 05:07:00,
2015-08-01 01:22:00,68.4,63.0,29.93,West,276,0.0,0.0,82,0.00,,,0.00,0,weatherlink.com 1.10,2015-08-01 05:22:00,
2015-08-01 01:37:00,68.0,63.0,29.93,West,276,0.0,2.0,83,0.00,,,0.00,0,weatherlink.com 1.10,2015-08-01 05:37:00,
2015-08-01 01:53:00,67.2,63.0,29.93,West,276,0.0,0.0,85,0.00,,,0.00,0,weatherlink.com 1.10,2015-08-01 05:53:00,
2015-08-01 02:07:00,65.9,62.0,29.94,West,276,0.0,0.0,88,0.00,,,0.00,0,weatherlink.com 1.10,2015-08-01 06:07:00,
2015-08-01 02:22:00,65.0,62.0,29.94,West,276,0.0,0.0,89,0.00,,,0.00,0,weatherlink.com 1.10,2015-08-01 06:22:00,
2015-08-01 02:37:00,64.7,62.0,29.93,West,276,0.0,1.0,89,0.00,,,0.00,0,weatherlink.com 1.10,2015-08-01 06:37:00,
2015-08-01 02:53:00,64.6,62.0,29.93,West,276,0.0,0.0,90,0.00,,,0.00,0,weatherlink.com 1.10,2015-08-01 06:53:00,
2015-08-01 03:07:00,64.6,61.0,29.93,West,276,1.0,2.0,89,0.00,,,0.00,0,weatherlink.com 1.10,2015-08-01 07:07:00,
2015-08-01 03:22:00,64.7,62.0,29.93,West,276,0.0,1.0,89,0.00,,,0.00,0,weatherlink.com 1.10,2015-08-01 07:22:00,
2015-08-01 03:38:00,64.7,62.0,29.93,West,276,0.0,1.0,89,0.00,,,0.00,0,weatherlink.com 1.10,2015-08-01 07:38:00,
2015-08-01 03:52:00,64.6,61.0,29.93,West,276,1.0,1.0,89,0.00,,,0.00,0,weatherlink.com 1.10,2015-08-01 07:52:00,
2015-08-01 04:07:00,64.3,61.0,29.92,West,276,0.0,1.0,89,0.00,,,0.00,0,weatherlink.com 1.10,2015-08-01 08:07:00,
2015-08-01 04:23:00,63.9,61.0,29.92,West,276,0.0,0.0,89,0.00,,,0.00,0,weatherlink.com 1.10,2015-08-01 08:23:00,
2015-08-01 04:38:00,63.6,60.0,29.92,West,276,0.0,0.0,89,0.00,,,0.00,0,weatherlink.com 1.10,2015-08-01 08:38:00,
2015-08-01 04:52:00,63.4,60.0,29.92,West,276,0.0,0.0,89,0.00,,,0.00,0,weatherlink.com 1.10,2015-08-01 08:52:00,
2015-08-01 05:07:00,63.0,60.0,29.92,West,276,0.0,0.0,89,0.00,,,0.00,0,weatherlink.com 1.10,2015-08-01 09:07:00,
2015-08-01 05:22:00,62.8,60.0,29.92,West,276,0.0,0.0,90,0.00,,,0.00,0,weatherlink.com 1.10,2015-08-01 09:22:00,
2015-08-01 05:37:00,62.5,60.0,29.92,West,276,0.0,0.0,90,0.00,,,0.00,0,weatherlink.com 1.10,2015-08-01 09:37:00,
2015-08-01 05:52:00,62.2,60.0,29.92,West,276,0.0,0.0,91,0.00,,,0.00,0,weatherlink.com 1.10,2015-08-01 09:52:00,
2015-08-01 06:07:00,61.9,59.0,29.92,West,276,0.0,0.0,91,0.00,,,0.00,0,weatherlink.com 1.10,2015-08-01 10:07:00,
2015-08-01 06:23:00,61.5,59.0,29.92,West,276,0.0,0.0,91,0.00,,,0.00,0,weatherlink.com 1.10,2015-08-01 10:23:00,
2015-08-01 06:37:00,61.1,58.0,29.92,West,276,0.0,0.0,90,0.00,,,0.00,5,weatherlink.com 1.10,2015-08-01 10:37:00,
2015-08-01 06:52:00,60.7,58.0,29.93,West,276,0.0,0.0,91,0.00,,,0.00,12,weatherlink.com 1.10,2015-08-01 10:52:00,
2015-08-01 07:07:00,60.5,58.0,29.93,SW,234,0.0,1.0,91,0.00,,,0.00,21,weatherlink.com 1.10,2015-08-01 11:07:00,
2015-08-01 07:22:00,60.5,58.0,29.93,SW,234,0.0,0.0,91,0.00,,,0.00,28,weatherlink.com 1.10,2015-08-01 11:22:00,
2015-08-01 07:37:00,61.2,59.0,29.93,SW,234,0.0,0.0,91,0.00,,,0.00,125,weatherlink.com 1.10,2015-08-01 11:37:00,
2015-08-01 07:53:00,62.9,60.0,29.94,SW,234,0.0,0.0,91,0.00,,,0.00,165,weatherlink.com 1.10,2015-08-01 11:53:00,
2015-08-01 08:07:00,64.8,62.0,29.94,NNE,20,0.0,0.0,91,0.00,,,0.00,216,weatherlink.com 1.10,2015-08-01 12:07:00,
2015-08-01 08:22:00,66.3,64.0,29.95,NNE,20,0.0,0.0,91,0.00,,,0.00,271,weatherlink.com 1.10,2015-08-01 12:22:00,
2015-08-01 08:37:00,68.3,64.0,29.95,North,355,1.0,3.0,87,0.00,,,0.00,322,weatherlink.com 1.10,2015-08-01 12:37:00,
2015-08-01 08:53:00,69.5,65.0,29.95,NW,321,0.0,3.0,85,0.00,,,0.00,373,weatherlink.com 1.10,2015-08-01 12:53:00,
2015-08-01 09:08:00,70.5,64.0,29.95,WNW,288,2.0,4.0,81,0.00,,,0.00,424,weatherlink.com 1.10,2015-08-01 13:08:00,
2015-08-01 09:23:00,71.8,66.0,29.96,WSW,258,2.0,2.0,81,0.00,,,0.00,466,weatherlink.com 1.10,2015-08-01 13:23:00,
2015-08-01 09:38:00,72.5,66.0,29.96,WNW,286,0.0,3.0,80,0.00,,,0.00,513,weatherlink.com 1.10,2015-08-01 13:38:00,
2015-08-01 09:53:00,74.4,66.0,29.96,WNW,290,0.0,3.0,75,0.00,,,0.00,564,weatherlink.com 1.10,2015-08-01 13:53:00,
2015-08-01 10:08:00,74.8,66.0,29.96,WNW,284,0.0,3.0,74,0.00,,,0.00,605,weatherlink.com 1.10,2015-08-01 14:08:00,
2015-08-01 10:23:00,75.4,65.0,29.96,West,273,3.0,5.0,70,0.00,,,0.00,649,weatherlink.com 1.10,2015-08-01 14:23:00,
2015-08-01 10:38:00,76.0,64.0,29.96,WNW,297,1.0,6.0,67,0.00,,,0.00,684,weatherlink.com 1.10,2015-08-01 14:38:00,
2015-08-01 10:53:00,76.6,63.0,29.96,West,268,2.0,6.0,63,0.00,,,0.00,722,weatherlink.com 1.10,2015-08-01 14:53:00,
2015-08-01 11:08:00,78.0,63.0,29.96,North,360,0.0,5.0,60,0.00,,,0.00,758,weatherlink.com 1.10,2015-08-01 15:08:00,
2015-08-01 11:24:00,78.5,65.0,29.96,WNW,283,0.0,5.0,64,0.00,,,0.00,795,weatherlink.com 1.10,2015-08-01 15:24:00,
2015-08-01 11:38:00,78.8,63.0,29.96,West,279,2.0,6.0,59,0.00,,,0.00,824,weatherlink.com 1.10,2015-08-01 15:38:00,
2015-08-01 11:53:00,78.8,64.0,29.96,WNW,285,2.0,7.0,60,0.00,,,0.00,847,weatherlink.com 1.10,2015-08-01 15:53:00,
2015-08-01 12:10:00,79.9,62.0,29.96,West,266,4.0,5.0,55,0.00,,,0.00,872,weatherlink.com 1.10,2015-08-01 16:10:00,
2015-08-01 12:24:00,78.6,62.0,29.96,West,261,1.0,6.0,57,0.00,,,0.00,886,weatherlink.com 1.10,2015-08-01 16:24:00,
2015-08-01 12:40:00,79.7,61.0,29.96,WNW,284,0.0,7.0,53,0.00,,,0.00,958,weatherlink.com 1.10,2015-08-01 16:40:00,
2015-08-01 12:55:00,80.4,60.0,29.96,West,264,2.0,4.0,50,0.00,,,0.00,1021,weatherlink.com 1.10,2015-08-01 16:55:00,
2015-08-01 13:09:00,78.7,64.0,29.95,NW,325,1.0,6.0,60,0.00,,,0.00,1005,weatherlink.com 1.10,2015-08-01 17:09:00,
2015-08-01 13:24:00,80.6,61.0,29.95,NW,324,1.0,8.0,51,0.00,,,0.00,1021,weatherlink.com 1.10,2015-08-01 17:24:00,
2015-08-01 13:39:00,80.1,63.0,29.95,West,272,2.0,7.0,56,0.00,,,0.00,997,weatherlink.com 1.10,2015-08-01 17:39:00,
2015-08-01 13:54:00,82.1,63.0,29.95,NW,306,6.0,6.0,52,0.00,,,0.00,1039,weatherlink.com 1.10,2015-08-01 17:54:00,